createdAt,value
2019-05-09T00:00:43.744Z,26.10
2019-05-09T00:03:18.218Z,20.77
2019-05-09T00:06:04.601Z,24.90
2019-05-09T00:08:36.932Z,18.77
2019-05-09T00:11:08.826Z,24.07
2019-05-09T00:13:43.460Z,35.53
2019-05-09T00:16:16.363Z,24.87
2019-05-09T00:18:54.049Z,18.53
2019-05-09T00:21:28.402Z,24.17
2019-05-09T00:24:03.511Z,19.03
2019-05-09T00:26:36.755Z,23.87
2019-05-09T00:29:21.163Z,22.37
2019-05-09T00:31:54.535Z,27.93
2019-05-09T00:34:39.945Z,20.90
2019-05-09T00:37:13.534Z,21.50
2019-05-09T00:39:45.688Z,22.73
2019-05-09T00:42:18.622Z,23.37
2019-05-09T00:44:58.928Z,29.93
2019-05-09T00:47:32.927Z,27.03
2019-05-09T00:50:08.377Z,20.20
2019-05-09T00:52:43.045Z,24.03
2019-05-09T00:55:15.842Z,22.63
2019-05-09T00:57:48.849Z,18.50
2019-05-09T01:00:24.124Z,22.07
2019-05-09T01:02:56.671Z,25.27
2019-05-09T01:05:28.416Z,17.73
2019-05-09T01:08:04.194Z,18.90
2019-05-09T01:10:37.145Z,17.77
2019-05-09T01:13:14.037Z,18.97
2019-05-09T01:15:46.496Z,17.77
2019-05-09T01:18:20.440Z,23.93
2019-05-09T01:20:53.093Z,16.70
2019-05-09T01:23:27.630Z,22.37
2019-05-09T01:25:59.736Z,20.47
2019-05-09T01:28:33.854Z,16.70
2019-05-09T01:31:07.449Z,19.03
2019-05-09T01:33:53.280Z,19.77
2019-05-09T01:36:26.163Z,18.93
2019-05-09T01:38:59.060Z,17.03
2019-05-09T01:41:34.067Z,23.40
2019-05-09T01:44:06.567Z,20.90
2019-05-09T01:46:39.548Z,19.07
2019-05-09T01:49:13.800Z,22.67
2019-05-09T01:51:47.068Z,21.40
2019-05-09T01:54:20.495Z,21.07
2019-05-09T01:56:53.776Z,22.27
2019-05-09T01:59:25.839Z,19.43
2019-05-09T02:01:57.472Z,15.57
2019-05-09T02:04:30.743Z,21.47
2019-05-09T02:07:04.469Z,26.20
2019-05-09T02:09:36.441Z,18.57
2019-05-09T02:12:09.423Z,20.83
2019-05-09T02:15:03.881Z,24.13
2019-05-09T02:17:58.900Z,24.83
2019-05-09T02:20:24.234Z,20.60
2019-05-09T02:22:57.315Z,24.30
2019-05-09T02:25:30.318Z,20.03
2019-05-09T02:28:03.500Z,22.00
2019-05-09T02:30:36.185Z,24.70
2019-05-09T02:33:09.278Z,26.30
2019-05-09T02:35:56.254Z,22.70
2019-05-09T02:38:19.718Z,20.93
2019-05-09T02:40:51.791Z,20.20
2019-05-09T02:43:24.606Z,24.10
2019-05-09T02:46:11.447Z,25.50
2019-05-09T02:48:43.174Z,19.97
2019-05-09T02:51:14.924Z,19.67
2019-05-09T02:53:48.696Z,20.43
2019-05-09T02:56:21.816Z,22.83
2019-05-09T02:59:05.309Z,24.10
2019-05-09T03:01:49.559Z,27.13
2019-05-09T03:04:21.384Z,23.43
2019-05-09T03:06:54.346Z,29.17
2019-05-09T03:09:28.811Z,29.33
2019-05-09T03:12:21.262Z,23.47
2019-05-09T03:14:38.815Z,25.07
2019-05-09T03:17:11.829Z,19.87
2019-05-09T03:19:44.833Z,25.00
2019-05-09T03:22:20.378Z,22.83
2019-05-09T03:24:52.034Z,22.83
2019-05-09T03:27:48.265Z,25.03
2019-05-09T03:30:21.012Z,20.97
2019-05-09T03:32:53.129Z,22.17
2019-05-09T03:35:24.859Z,25.07
2019-05-09T03:38:08.261Z,21.13
2019-05-09T03:40:40.051Z,21.17
2019-05-09T03:43:13.065Z,24.80
2019-05-09T03:45:49.135Z,21.70
2019-05-09T03:48:34.519Z,23.77
2019-05-09T03:51:08.098Z,29.23
2019-05-09T03:53:40.661Z,25.23
2019-05-09T03:56:15.279Z,28.57
2019-05-09T03:58:47.500Z,29.97
2019-05-09T04:01:19.629Z,31.60
2019-05-09T04:03:51.380Z,28.37
2019-05-09T04:06:24.363Z,23.77
2019-05-09T04:08:58.540Z,22.50
2019-05-09T04:11:31.564Z,23.27
2019-05-09T04:14:21.351Z,24.73
2019-05-09T04:16:52.954Z,24.30
2019-05-09T04:19:27.881Z,29.43
2019-05-09T04:22:02.188Z,29.90
2019-05-09T04:24:33.214Z,36.00
2019-05-09T04:27:07.815Z,25.73
2019-05-09T04:29:39.715Z,25.10
2019-05-09T04:32:11.448Z,28.17
2019-05-09T04:34:43.180Z,30.27
2019-05-09T04:37:15.292Z,27.83
2019-05-09T04:39:47.621Z,31.63
2019-05-09T04:42:19.460Z,31.03
2019-05-09T04:44:57.594Z,31.40
2019-05-09T04:47:28.756Z,26.00
2019-05-09T04:50:07.608Z,21.40
2019-05-09T04:52:39.992Z,20.43
2019-05-09T04:55:12.799Z,29.47
2019-05-09T04:57:45.624Z,26.77
2019-05-09T05:00:19.100Z,26.13
2019-05-09T05:02:52.431Z,40.30
2019-05-09T05:05:24.320Z,25.87
2019-05-09T05:07:57.359Z,25.53
2019-05-09T05:10:30.271Z,20.20
2019-05-09T05:13:02.012Z,23.47
2019-05-09T05:15:33.763Z,27.80
2019-05-09T05:18:05.627Z,22.23
2019-05-09T05:20:38.509Z,24.00
2019-05-09T05:23:11.999Z,25.30
2019-05-09T05:25:43.689Z,24.40
2019-05-09T05:28:17.568Z,25.80
2019-05-09T05:30:51.398Z,26.47
2019-05-09T05:33:27.886Z,23.00
2019-05-09T13:22:52.060Z,31.57
2019-05-09T13:25:34.040Z,48.43
2019-05-09T13:28:08.299Z,26.70
2019-05-09T13:30:39.797Z,22.47
2019-05-09T13:33:14.024Z,31.07
2019-05-09T13:35:45.690Z,27.77
2019-05-09T13:38:18.017Z,30.80
2019-05-09T13:40:53.475Z,21.43
2019-05-09T13:43:24.672Z,22.87
2019-05-09T13:45:58.683Z,18.17
2019-05-09T13:48:55.225Z,20.10
2019-05-09T13:51:04.004Z,25.80
2019-05-09T13:53:35.744Z,19.37
2019-05-09T13:56:08.462Z,29.47
2019-05-09T13:58:41.640Z,29.13
2019-05-09T14:01:14.284Z,29.37
2019-05-09T14:03:45.808Z,28.83
2019-05-09T14:06:17.569Z,28.50
2019-05-09T14:08:49.800Z,20.77
2019-05-09T14:11:23.113Z,19.47
2019-05-09T14:13:54.655Z,34.93
2019-05-09T14:16:28.660Z,33.90
2019-05-09T14:19:23.979Z,59.73
2019-05-09T14:21:33.380Z,29.40
2019-05-09T14:24:14.054Z,29.77
2019-05-09T14:26:40.371Z,21.40
2019-05-09T14:29:13.316Z,22.40
2019-05-09T14:31:45.372Z,21.20
2019-05-09T14:34:19.714Z,29.00
2019-05-09T14:36:51.948Z,29.97
2019-05-09T14:39:23.952Z,21.93
2019-05-09T14:41:57.807Z,37.33
2019-05-09T14:44:30.238Z,42.00
2019-05-09T14:47:02.251Z,41.10
2019-05-09T14:49:41.413Z,34.03
2019-05-09T14:52:08.537Z,25.00
2019-05-09T14:54:40.642Z,42.23
2019-05-09T14:57:14.020Z,52.50
2019-05-09T14:59:45.645Z,85.70
2019-05-09T15:02:20.659Z,70.90
2019-05-09T15:04:52.333Z,53.43
2019-05-09T15:07:24.099Z,69.03
2019-05-09T15:09:57.583Z,42.60
2019-05-09T15:12:31.291Z,40.47
2019-05-09T15:15:07.582Z,42.07
2019-05-09T15:17:39.075Z,68.60
2019-05-09T15:20:12.700Z,37.20
2019-05-09T15:22:47.750Z,38.57
2019-05-09T15:25:20.630Z,29.67
2019-05-09T15:27:53.178Z,60.80
2019-05-09T15:30:24.966Z,39.63
2019-05-09T15:33:01.394Z,31.97
2019-05-09T15:35:33.077Z,37.90
2019-05-09T15:38:11.322Z,45.27
2019-05-09T15:40:42.910Z,50.93
2019-05-09T15:43:14.776Z,49.37
2019-05-09T15:45:57.929Z,42.07
2019-05-09T15:48:29.308Z,37.97
2019-05-09T15:51:01.161Z,41.40
2019-05-09T15:53:38.097Z,27.77
2019-05-09T15:56:09.847Z,37.23
2019-05-09T15:58:41.925Z,31.43
2019-05-09T16:01:13.660Z,49.47
2019-05-09T16:03:48.604Z,46.83
2019-05-09T16:06:22.308Z,38.50
2019-05-09T16:08:58.518Z,42.63
2019-05-09T16:11:32.125Z,30.80
2019-05-09T16:14:03.895Z,31.50
2019-05-09T16:16:35.726Z,86.17
2019-05-09T16:19:09.179Z,66.37
2019-05-09T16:21:40.988Z,55.77
2019-05-09T16:24:18.860Z,34.90
2019-05-09T16:26:53.756Z,61.83
2019-05-09T16:29:30.364Z,51.27
2019-05-09T16:32:03.518Z,31.03
2019-05-09T16:34:40.079Z,27.97
2019-05-09T16:37:13.464Z,79.87
2019-05-09T16:39:47.023Z,32.67
2019-05-09T16:42:21.763Z,41.37
2019-05-09T16:44:54.663Z,41.13
2019-05-09T16:47:28.441Z,51.17
2019-05-09T16:50:01.150Z,48.80
2019-05-09T16:52:39.847Z,70.57
2019-05-09T16:55:12.635Z,68.67
2019-05-09T16:57:44.291Z,89.60
2019-05-09T17:00:30.226Z,106.70
2019-05-09T17:03:01.793Z,49.67
2019-05-09T17:05:33.388Z,87.90
2019-05-09T17:08:05.133Z,62.43
2019-05-09T17:10:38.471Z,45.53
2019-05-09T17:13:10.207Z,60.57
2019-05-09T17:15:41.989Z,80.83
2019-05-09T17:18:15.266Z,64.77
2019-05-09T17:20:50.616Z,93.97
2019-05-09T17:23:24.135Z,191.40
2019-05-09T17:25:57.918Z,172.83
2019-05-09T17:28:29.812Z,181.47
2019-05-09T17:31:04.663Z,83.13
2019-05-09T17:33:37.944Z,94.33
2019-05-09T17:36:10.049Z,106.63
2019-05-09T17:38:43.855Z,115.57
2019-05-09T17:41:19.018Z,187.53
2019-05-09T17:43:54.958Z,169.93
2019-05-09T17:46:28.060Z,128.40
2019-05-09T17:48:59.712Z,104.10
2019-05-09T17:51:33.868Z,101.00
2019-05-09T17:54:07.828Z,145.07
2019-05-09T17:56:40.407Z,157.90
2019-05-09T17:59:18.525Z,141.33
2019-05-09T18:01:51.096Z,146.40
2019-05-09T18:04:22.892Z,158.87
2019-05-09T18:06:54.698Z,146.50
2019-05-09T18:09:28.589Z,162.93
2019-05-09T18:12:00.711Z,103.33
2019-05-09T18:14:33.077Z,142.13
2019-05-09T18:17:05.008Z,78.63
2019-05-09T18:19:38.105Z,69.00
2019-05-09T18:22:10.898Z,68.27
2019-05-09T18:24:42.785Z,96.43
2019-05-09T18:27:14.617Z,106.80
2019-05-09T18:29:47.398Z,113.30
2019-05-09T18:32:31.114Z,83.03
2019-05-09T18:35:13.058Z,74.83
2019-05-09T18:37:48.260Z,86.07
2019-05-09T18:40:21.852Z,53.20
2019-05-09T18:42:53.603Z,87.00
2019-05-09T18:45:30.237Z,68.13
2019-05-09T18:48:02.102Z,94.17
2019-05-09T18:50:33.885Z,84.43
2019-05-09T18:53:05.537Z,56.03
2019-05-09T18:55:37.300Z,37.40
2019-05-09T18:58:10.739Z,30.63
2019-05-09T19:00:45.898Z,35.10
2019-05-09T19:03:17.540Z,31.20
2019-05-09T19:05:49.292Z,26.90
2019-05-09T19:08:22.721Z,27.83
2019-05-09T19:10:56.026Z,32.07
2019-05-09T19:13:27.817Z,28.77
2019-05-09T19:16:16.488Z,31.43
2019-05-09T19:19:08.134Z,29.77
2019-05-09T19:21:41.438Z,28.80
2019-05-09T19:24:13.101Z,28.33
2019-05-09T19:26:44.859Z,26.37
2019-05-09T19:29:18.149Z,22.60
2019-05-09T19:31:49.915Z,24.60
2019-05-09T19:34:21.463Z,25.77
2019-05-09T19:36:53.140Z,30.03
2019-05-09T19:39:24.913Z,28.50
2019-05-09T19:41:57.380Z,31.03
2019-05-09T19:44:29.228Z,32.27
2019-05-09T19:47:03.968Z,32.73
2019-05-09T19:49:36.596Z,32.87
2019-05-09T19:52:09.517Z,33.57
2019-05-09T19:54:41.269Z,37.47
2019-05-09T19:57:13.892Z,34.87
2019-05-09T19:59:50.462Z,34.20
2019-05-09T20:02:22.615Z,42.37
2019-05-09T20:04:57.378Z,35.63
2019-05-09T20:07:32.181Z,36.47
2019-05-09T20:10:09.910Z,46.87
2019-05-09T20:12:59.356Z,47.13
2019-05-09T20:15:30.907Z,44.73
2019-05-09T20:18:02.673Z,85.70
2019-05-09T20:20:34.482Z,69.97
2019-05-09T20:23:06.249Z,88.27
2019-05-09T20:25:38.005Z,89.50
2019-05-09T20:28:09.764Z,84.20
2019-05-09T20:30:43.402Z,41.57
2019-05-09T20:33:17.228Z,38.00
2019-05-09T20:35:55.982Z,38.73
2019-05-09T20:38:31.882Z,74.03
2019-05-09T20:41:09.998Z,53.67
2019-05-09T20:43:44.586Z,45.50
2019-05-09T20:46:16.538Z,39.57
2019-05-09T20:48:48.770Z,43.33
2019-05-09T20:51:27.053Z,40.43
2019-05-09T20:54:19.950Z,47.53
2019-05-09T20:56:37.168Z,306.17
2019-05-09T20:59:10.608Z,70.50
2019-05-09T21:01:42.911Z,63.83
2019-05-09T21:04:15.968Z,65.93
2019-05-09T21:06:48.151Z,44.87
2019-05-09T21:09:21.678Z,69.13
2019-05-09T21:11:53.697Z,70.97
2019-05-09T21:14:25.524Z,69.03
2019-05-09T21:16:57.573Z,72.63
2019-05-09T21:19:29.609Z,103.13
2019-05-09T21:22:01.698Z,111.53
2019-05-09T21:24:33.724Z,136.87
2019-05-09T21:27:05.566Z,134.63
2019-05-09T21:29:38.466Z,128.53
2019-05-09T21:32:10.319Z,110.47
2019-05-09T21:34:42.181Z,63.37
2019-05-09T21:37:14.150Z,51.50
2019-05-09T21:39:46.235Z,58.37
2019-05-09T21:42:18.011Z,59.43
2019-05-09T21:44:49.719Z,51.10
2019-05-09T21:47:21.558Z,55.97
2019-05-09T21:49:54.498Z,51.63
2019-05-09T21:52:27.217Z,53.47
2019-05-09T21:54:58.953Z,61.57
2019-05-09T21:57:31.963Z,56.73
2019-05-09T22:00:05.993Z,55.93
2019-05-09T22:02:39.432Z,56.27
2019-05-09T22:05:12.448Z,61.07
2019-05-09T22:07:44.203Z,73.33
2019-05-09T22:10:16.302Z,68.70
2019-05-09T22:12:48.060Z,56.80
2019-05-09T22:15:20.843Z,47.20
2019-05-09T22:17:52.555Z,52.07
2019-05-09T22:20:25.771Z,48.63
2019-05-09T22:22:57.517Z,50.83
2019-05-09T22:25:29.258Z,42.20
2019-05-09T22:28:00.994Z,49.33
2019-05-09T22:30:32.839Z,53.33
2019-05-09T22:33:04.614Z,46.10
2019-05-09T22:35:36.291Z,40.90
2019-05-09T22:38:08.115Z,47.03
2019-05-09T22:40:39.868Z,51.30
2019-05-09T22:43:13.135Z,53.87
2019-05-09T22:45:45.500Z,40.97
2019-05-09T22:48:17.235Z,37.07
2019-05-09T22:50:48.969Z,38.53
2019-05-09T22:53:20.828Z,37.50
2019-05-09T22:55:52.552Z,45.80
2019-05-09T22:58:24.301Z,56.10
2019-05-09T23:00:56.028Z,47.77
2019-05-09T23:03:27.785Z,31.87
2019-05-09T23:05:59.542Z,29.47
2019-05-09T23:08:31.304Z,30.87
2019-05-09T23:11:03.041Z,35.30
2019-05-09T23:13:36.517Z,47.40
2019-05-09T23:16:09.571Z,35.07
2019-05-09T23:18:41.391Z,35.93
2019-05-09T23:21:16.481Z,35.70
2019-05-09T23:23:56.064Z,31.20
2019-05-09T23:26:27.796Z,33.77
2019-05-09T23:28:59.560Z,39.77
2019-05-09T23:31:38.938Z,36.53
2019-05-09T23:34:10.686Z,34.63
2019-05-09T23:36:42.637Z,42.33
2019-05-09T23:39:25.005Z,33.10
2019-05-09T23:41:56.927Z,39.10
2019-05-09T23:44:28.879Z,36.33
2019-05-09T23:47:00.659Z,36.17
2019-05-09T23:49:32.293Z,33.83
2019-05-09T23:52:04.143Z,32.10
2019-05-09T23:54:53.599Z,27.57
2019-05-09T23:57:43.302Z,32.67
